createdAt,value
2019-02-10T00:00:22.539Z,6.85
2019-02-10T00:02:52.329Z,5.90
2019-02-10T00:05:23.983Z,8.03
2019-02-10T00:07:55.656Z,8.55
2019-02-10T00:10:25.379Z,9.05
2019-02-10T00:13:26.013Z,7.33
2019-02-10T00:15:55.797Z,10.70
2019-02-10T00:18:25.603Z,6.78
2019-02-10T00:20:56.483Z,8.18
2019-02-10T00:23:26.406Z,4.85
2019-02-10T00:25:56.317Z,5.75
2019-02-10T00:28:26.090Z,5.47
2019-02-10T00:30:55.789Z,8.50
2019-02-10T00:33:25.538Z,9.45
2019-02-10T00:35:55.231Z,4.53
2019-02-10T00:38:25.004Z,6.53
2019-02-10T00:40:56.408Z,4.85
2019-02-10T00:43:26.214Z,6.83
2019-02-10T00:45:57.586Z,4.97
2019-02-10T00:48:27.403Z,6.12
2019-02-10T00:50:57.243Z,5.72
2019-02-10T00:53:29.374Z,5.08
2019-02-10T00:55:59.136Z,4.97
2019-02-10T00:58:28.900Z,4.30
2019-02-10T01:00:58.603Z,3.72
2019-02-10T01:03:28.382Z,3.37
2019-02-10T01:06:00.323Z,4.70
2019-02-10T01:08:30.078Z,6.97
2019-02-10T01:10:59.793Z,5.05
2019-02-10T01:13:29.571Z,6.50
2019-02-10T01:16:01.726Z,10.78
2019-02-10T01:18:31.487Z,6.65
2019-02-10T01:21:01.220Z,8.35
2019-02-10T01:23:31.016Z,13.60
2019-02-10T01:26:00.696Z,5.80
2019-02-10T01:28:30.622Z,8.48
2019-02-10T01:31:00.428Z,6.53
2019-02-10T01:33:30.147Z,5.62
2019-02-10T01:35:59.910Z,4.20
2019-02-10T01:38:29.630Z,6.05
2019-02-10T01:40:59.358Z,6.33
2019-02-10T01:43:29.102Z,8.75
2019-02-10T01:45:58.968Z,5.78
2019-02-10T01:48:28.796Z,8.03
2019-02-10T01:50:58.555Z,5.85
2019-02-10T01:53:28.259Z,5.78
2019-02-10T01:55:57.960Z,6.20
2019-02-10T01:58:27.703Z,6.75
2019-02-10T02:00:57.416Z,4.10
2019-02-10T02:03:27.299Z,5.55
2019-02-10T02:05:57.006Z,7.80
2019-02-10T02:08:26.780Z,5.97
2019-02-10T02:10:56.538Z,5.00
2019-02-10T02:13:26.435Z,5.58
2019-02-10T02:15:56.142Z,3.80
2019-02-10T02:18:25.875Z,9.95
2019-02-10T02:20:55.712Z,4.72
2019-02-10T02:23:25.500Z,4.87
2019-02-10T02:25:55.190Z,6.92
2019-02-10T02:28:24.986Z,4.75
2019-02-10T02:30:54.837Z,5.50
2019-02-10T02:33:24.602Z,8.20
2019-02-10T02:35:54.327Z,6.78
2019-02-10T02:38:24.046Z,12.95
2019-02-10T02:40:53.776Z,20.05
2019-02-10T02:43:23.555Z,9.88
2019-02-10T02:45:53.260Z,13.45
2019-02-10T02:48:23.032Z,16.65
2019-02-10T02:50:52.767Z,24.55
2019-02-10T02:53:22.511Z,14.50
2019-02-10T02:55:52.224Z,14.15
2019-02-10T02:58:21.936Z,13.15
2019-02-10T03:00:51.701Z,25.23
2019-02-10T03:03:21.458Z,22.27
2019-02-10T03:05:51.192Z,21.02
2019-02-10T03:08:21.084Z,18.60
2019-02-10T03:10:50.882Z,16.30
2019-02-10T03:13:20.641Z,13.05
2019-02-10T03:15:50.411Z,22.42
2019-02-10T03:18:22.194Z,18.62
2019-02-10T03:20:52.075Z,19.32
2019-02-10T03:23:21.883Z,22.30
2019-02-10T03:25:51.605Z,22.93
2019-02-10T03:28:21.284Z,8.25
2019-02-10T03:30:51.034Z,11.38
2019-02-10T03:33:20.753Z,18.65
2019-02-10T03:35:50.675Z,8.28
2019-02-10T03:38:20.339Z,6.42
2019-02-10T03:40:50.391Z,15.83
2019-02-10T03:43:20.173Z,14.05
2019-02-10T03:45:49.916Z,8.40
2019-02-10T03:48:19.663Z,6.00
2019-02-10T03:50:49.403Z,14.87
2019-02-10T03:53:19.236Z,8.60
2019-02-10T03:55:49.031Z,10.68
2019-02-10T03:58:18.759Z,6.22
2019-02-10T04:00:48.444Z,11.43
2019-02-10T04:03:18.255Z,8.03
2019-02-10T04:05:49.155Z,5.28
2019-02-10T04:08:18.861Z,6.83
2019-02-10T04:10:48.571Z,5.30
2019-02-10T04:13:18.372Z,5.60
2019-02-10T04:15:48.152Z,5.12
2019-02-10T04:18:17.861Z,7.90
2019-02-10T04:20:47.619Z,4.62
2019-02-10T04:23:17.296Z,5.80
2019-02-10T04:25:47.078Z,8.10
2019-02-10T04:28:16.812Z,4.53
2019-02-10T04:30:46.609Z,6.58
2019-02-10T04:33:16.344Z,5.72
2019-02-10T04:35:46.146Z,5.97
2019-02-10T04:38:15.871Z,4.28
2019-02-10T04:40:47.656Z,5.50
2019-02-10T04:43:17.335Z,11.35
2019-02-10T04:45:50.117Z,5.20
2019-02-10T04:48:19.811Z,4.67
2019-02-10T04:50:49.548Z,5.45
2019-02-10T04:53:19.302Z,4.90
2019-02-10T04:56:11.921Z,9.10
2019-02-10T04:58:41.743Z,4.78
2019-02-10T05:01:11.477Z,4.60
2019-02-10T05:03:41.167Z,6.62
2019-02-10T05:06:10.903Z,9.03
2019-02-10T05:08:40.601Z,6.50
2019-02-10T05:11:10.324Z,7.33
2019-02-10T05:13:40.066Z,10.58
2019-02-10T05:16:09.895Z,11.57
2019-02-10T05:18:39.588Z,13.75
2019-02-10T05:21:09.288Z,7.67
2019-02-10T05:23:39.039Z,8.25
2019-02-10T05:26:08.719Z,5.17
2019-02-10T05:28:38.551Z,4.97
2019-02-10T05:31:08.534Z,6.80
2019-02-10T05:33:38.317Z,7.08
2019-02-10T05:36:08.007Z,7.92
2019-02-10T05:38:37.745Z,7.47
2019-02-10T05:41:07.517Z,6.90
2019-02-10T05:43:37.293Z,13.90
2019-02-10T05:46:07.027Z,6.37
2019-02-10T05:48:36.716Z,7.10
2019-02-10T05:51:06.446Z,6.12
2019-02-10T05:53:36.156Z,8.70
2019-02-10T05:56:05.834Z,6.37
2019-02-10T05:58:35.670Z,7.08
2019-02-10T06:01:40.532Z,8.43
2019-02-10T06:04:10.266Z,7.42
2019-02-10T06:06:40.002Z,5.60
2019-02-10T06:09:09.717Z,6.92
2019-02-10T06:11:39.449Z,6.20
2019-02-10T06:14:11.625Z,9.05
2019-02-10T06:16:41.364Z,10.08
2019-02-10T06:19:11.239Z,8.78
2019-02-10T06:21:41.080Z,4.60
2019-02-10T06:24:10.778Z,6.50
2019-02-10T06:26:40.454Z,4.05
2019-02-10T06:29:10.187Z,4.90
2019-02-10T06:31:40.015Z,8.30
2019-02-10T06:34:09.790Z,6.15
2019-02-10T06:36:39.526Z,6.10
2019-02-10T06:39:09.304Z,7.47
2019-02-10T06:41:39.012Z,7.97
2019-02-10T06:44:08.689Z,9.95
2019-02-10T06:46:38.426Z,9.93
2019-02-10T06:49:08.135Z,8.10
2019-02-10T06:51:37.887Z,14.00
2019-02-10T06:54:07.704Z,7.30
2019-02-10T06:56:37.566Z,12.60
2019-02-10T06:59:10.229Z,7.58
2019-02-10T07:01:50.485Z,9.25
2019-02-10T07:04:23.651Z,7.92
2019-02-10T07:06:53.487Z,6.28
2019-02-10T07:09:25.231Z,5.60
2019-02-10T07:11:54.931Z,5.15
2019-02-10T07:14:38.480Z,9.20
2019-02-10T07:17:38.034Z,14.07
2019-02-10T07:20:41.382Z,11.40
2019-02-10T07:23:37.105Z,13.88
2019-02-10T07:26:15.143Z,13.72
2019-02-10T07:29:14.916Z,13.08
2019-02-10T07:31:53.616Z,10.08
2019-02-10T07:35:19.913Z,11.48
2019-02-10T07:38:15.782Z,7.75
2019-02-10T07:41:25.559Z,9.70
2019-02-10T07:44:30.785Z,10.85
2019-02-10T07:47:25.440Z,9.13
2019-02-10T07:50:36.357Z,11.53
2019-02-10T07:53:28.465Z,13.32
2019-02-10T07:56:37.530Z,10.50
2019-02-10T07:59:43.649Z,9.00
2019-02-10T08:02:38.354Z,9.65
2019-02-10T08:05:56.880Z,9.85
2019-02-10T08:09:13.120Z,10.78
2019-02-10T08:12:26.988Z,15.85
2019-02-10T08:15:07.347Z,14.10
2019-02-10T08:18:14.239Z,15.88
2019-02-10T08:21:18.947Z,9.68
2019-02-10T08:24:09.874Z,10.10
2019-02-10T08:27:03.861Z,13.13
2019-02-10T08:30:23.763Z,9.28
2019-02-10T08:33:41.976Z,10.18
2019-02-10T08:37:04.306Z,10.53
2019-02-10T08:40:03.763Z,11.55
2019-02-10T08:43:08.541Z,11.50
2019-02-10T08:46:28.414Z,12.82
2019-02-10T08:49:33.466Z,10.80
2019-02-10T08:52:32.591Z,13.60
2019-02-10T08:55:02.565Z,19.07
2019-02-10T08:57:32.380Z,15.78
2019-02-10T09:00:02.200Z,15.65
2019-02-10T09:02:31.931Z,14.78
2019-02-10T09:05:01.677Z,11.35
2019-02-10T09:07:31.390Z,13.78
2019-02-10T09:10:01.103Z,15.28
2019-02-10T09:12:30.819Z,12.78
2019-02-10T09:15:00.535Z,14.20
2019-02-10T09:17:31.631Z,14.65
2019-02-10T09:20:01.522Z,11.95
2019-02-10T09:22:31.275Z,12.15
2019-02-10T09:25:01.042Z,8.70
2019-02-10T09:27:30.981Z,9.08
2019-02-10T09:30:00.981Z,11.63
2019-02-10T09:32:30.734Z,13.43
2019-02-10T09:35:00.547Z,10.98
2019-02-10T09:37:30.495Z,8.40
2019-02-10T09:40:00.344Z,10.60
2019-02-10T09:42:30.256Z,11.45
2019-02-10T09:45:00.337Z,7.45
2019-02-10T09:47:35.830Z,9.03
2019-02-10T09:50:06.783Z,11.08
2019-02-10T09:52:36.500Z,7.83
2019-02-10T09:55:06.586Z,9.70
2019-02-10T09:57:36.322Z,7.70
2019-02-10T10:00:07.715Z,14.83
2019-02-10T10:02:37.559Z,10.45
2019-02-10T10:05:08.354Z,10.30
2019-02-10T10:07:38.276Z,13.30
2019-02-10T10:10:09.352Z,15.80
2019-02-10T10:12:39.100Z,10.25
2019-02-10T10:15:10.691Z,12.50
2019-02-10T10:17:40.485Z,13.75
2019-02-10T10:20:12.243Z,10.23
2019-02-10T10:22:41.985Z,12.28
2019-02-10T10:25:11.742Z,10.43
2019-02-10T10:27:41.499Z,10.32
2019-02-10T10:30:13.806Z,9.10
2019-02-10T10:32:43.544Z,9.05
2019-02-10T10:35:13.455Z,11.55
2019-02-10T10:37:43.222Z,8.83
2019-02-10T10:40:13.307Z,9.63
2019-02-10T10:42:43.205Z,11.40
2019-02-10T10:45:13.414Z,6.62
2019-02-10T10:47:43.276Z,8.38
2019-02-10T10:50:13.349Z,11.68
2019-02-10T10:52:43.060Z,9.05
2019-02-10T10:55:13.022Z,10.15
2019-02-10T10:57:42.757Z,13.95
2019-02-10T11:00:12.933Z,11.22
2019-02-10T11:02:42.719Z,11.12
2019-02-10T11:05:12.754Z,10.85
2019-02-10T11:07:42.515Z,12.00
2019-02-10T11:10:12.707Z,13.00
2019-02-10T11:12:42.970Z,8.65
2019-02-10T11:15:13.062Z,10.23
2019-02-10T11:17:42.770Z,11.15
2019-02-10T11:20:12.643Z,10.48
2019-02-10T11:22:42.337Z,10.43
2019-02-10T11:25:12.131Z,11.70
2019-02-10T11:27:41.824Z,11.88
2019-02-10T11:30:11.963Z,10.50
2019-02-10T11:32:42.257Z,11.03
2019-02-10T11:35:12.432Z,18.62
2019-02-10T11:37:42.281Z,12.60
2019-02-10T11:40:12.003Z,14.87
2019-02-10T11:42:44.081Z,13.95
2019-02-10T11:45:13.371Z,10.78
2019-02-10T11:47:43.246Z,13.38
2019-02-10T11:50:13.093Z,11.12
2019-02-10T11:52:42.876Z,19.40
2019-02-10T11:55:12.839Z,12.43
2019-02-10T11:57:42.620Z,15.23
2019-02-10T12:00:13.279Z,13.98
2019-02-10T12:02:43.155Z,14.70
2019-02-10T12:05:12.895Z,18.20
2019-02-10T12:07:42.602Z,14.68
2019-02-10T12:10:12.492Z,12.58
2019-02-10T12:12:42.203Z,18.30
2019-02-10T12:15:12.147Z,18.42
2019-02-10T12:17:41.910Z,14.98
2019-02-10T12:20:11.839Z,15.65
2019-02-10T12:22:49.683Z,20.92
2019-02-10T12:25:16.178Z,14.87
2019-02-10T12:27:46.035Z,13.70
2019-02-10T12:30:15.921Z,19.27
2019-02-10T12:32:45.628Z,16.02
2019-02-10T12:35:15.423Z,19.87
2019-02-10T12:37:45.172Z,16.10
2019-02-10T12:40:14.882Z,19.05
2019-02-10T12:42:44.617Z,17.95
2019-02-10T12:45:14.817Z,16.32
2019-02-10T12:47:44.579Z,14.63
2019-02-10T12:50:14.325Z,14.68
2019-02-10T12:52:44.217Z,19.32
2019-02-10T12:55:14.724Z,14.90
2019-02-10T12:57:44.482Z,18.50
2019-02-10T13:00:15.662Z,14.45
2019-02-10T13:02:45.722Z,16.75
2019-02-10T13:05:16.540Z,17.75
2019-02-10T13:07:47.417Z,15.35
2019-02-10T13:10:18.328Z,12.88
2019-02-10T13:12:48.311Z,17.07
2019-02-10T13:15:18.052Z,15.95
2019-02-10T13:17:47.939Z,19.95
2019-02-10T13:20:17.834Z,17.10
2019-02-10T13:22:47.592Z,19.10
2019-02-10T13:25:17.506Z,19.92
2019-02-10T13:27:47.354Z,15.10
2019-02-10T13:30:17.129Z,15.50
2019-02-10T13:32:47.391Z,17.42
2019-02-10T13:35:18.589Z,17.67
2019-02-10T13:37:49.372Z,21.95
2019-02-10T13:40:19.133Z,16.55
2019-02-10T13:42:49.028Z,16.62
2019-02-10T13:45:18.755Z,18.17
2019-02-10T13:47:48.628Z,18.10
2019-02-10T13:50:18.354Z,24.23
2019-02-10T13:52:48.154Z,23.62
2019-02-10T13:55:18.146Z,19.20
2019-02-10T13:57:47.915Z,19.90
2019-02-10T14:00:19.055Z,21.82
2019-02-10T14:02:48.822Z,20.45
2019-02-10T14:05:18.568Z,19.07
2019-02-10T14:07:48.383Z,22.93
2019-02-10T14:10:25.364Z,22.52
2019-02-10T14:12:50.406Z,24.80
2019-02-10T14:15:20.124Z,25.60
2019-02-10T14:17:49.935Z,23.85
2019-02-10T14:20:19.704Z,24.67
2019-02-10T14:22:49.480Z,22.85
2019-02-10T14:25:19.257Z,26.40
2019-02-10T14:27:49.189Z,19.07
2019-02-10T14:30:20.630Z,25.23
2019-02-10T14:32:50.440Z,24.52
2019-02-10T14:35:20.344Z,23.80
2019-02-10T14:37:50.124Z,29.72
2019-02-10T14:40:21.159Z,25.97
2019-02-10T14:42:50.921Z,30.25
2019-02-10T14:45:20.624Z,25.95
2019-02-10T14:47:50.394Z,26.93
2019-02-10T14:50:20.144Z,25.35
2019-02-10T14:52:49.923Z,31.45
2019-02-10T14:55:19.703Z,30.27
2019-02-10T14:57:50.089Z,25.50
2019-02-10T15:00:19.815Z,29.00
2019-02-10T15:02:51.538Z,25.55
2019-02-10T15:05:21.283Z,38.53
2019-02-10T15:07:52.016Z,30.12
2019-02-10T15:10:21.839Z,34.08
2019-02-10T15:12:52.165Z,29.30
2019-02-10T15:15:22.022Z,33.83
2019-02-10T15:17:53.235Z,35.75
2019-02-10T15:20:23.127Z,30.05
2019-02-10T15:22:52.976Z,33.42
2019-02-10T15:25:22.879Z,30.17
2019-02-10T15:27:55.835Z,32.95
2019-02-10T15:30:25.661Z,37.10
2019-02-10T15:32:55.625Z,31.85
2019-02-10T15:35:26.159Z,33.63
2019-02-10T15:37:56.212Z,37.30
2019-02-10T15:40:26.210Z,36.42
2019-02-10T15:42:59.774Z,34.05
2019-02-10T15:45:29.528Z,33.67
2019-02-10T15:47:59.619Z,33.80
2019-02-10T15:50:29.500Z,32.98
2019-02-10T15:52:59.278Z,28.73
2019-02-10T15:55:29.216Z,34.60
2019-02-10T15:57:59.140Z,29.92
2019-02-10T16:00:28.901Z,31.02
2019-02-10T16:02:58.805Z,34.05
2019-02-10T16:05:28.730Z,34.98
2019-02-10T16:07:58.883Z,27.42
2019-02-10T16:10:28.960Z,31.25
2019-02-10T16:12:59.277Z,29.30
2019-02-10T16:15:29.020Z,41.65
2019-02-10T16:17:58.841Z,38.28
2019-02-10T16:20:28.525Z,35.78
2019-02-10T16:22:58.284Z,29.98
2019-02-10T16:25:28.022Z,33.42
2019-02-10T16:27:57.741Z,38.58
2019-02-10T16:30:27.474Z,41.45
2019-02-10T16:32:57.216Z,37.15
2019-02-10T16:35:27.266Z,30.77
2019-02-10T16:37:57.012Z,32.00
2019-02-10T16:40:26.745Z,37.63
2019-02-10T16:42:57.111Z,32.85
2019-02-10T16:45:30.434Z,34.08
2019-02-10T16:48:00.297Z,29.30
2019-02-10T16:50:30.620Z,31.17
2019-02-10T16:53:00.418Z,29.72
2019-02-10T16:55:31.678Z,29.23
2019-02-10T16:58:05.555Z,28.50
2019-02-10T17:00:37.923Z,29.67
2019-02-10T17:03:11.311Z,28.87
2019-02-10T17:05:41.126Z,32.15
2019-02-10T17:08:11.115Z,34.65
2019-02-10T17:10:40.937Z,32.83
2019-02-10T17:13:10.696Z,34.00
2019-02-10T17:15:40.614Z,32.30
2019-02-10T17:18:12.015Z,31.20
2019-02-10T17:20:42.108Z,35.15
2019-02-10T17:23:11.895Z,32.85
2019-02-10T17:25:41.924Z,31.80
2019-02-10T17:28:11.825Z,30.40
2019-02-10T17:30:41.636Z,32.90
2019-02-10T17:33:11.440Z,30.60
2019-02-10T17:35:42.565Z,28.87
2019-02-10T17:38:12.534Z,30.77
2019-02-10T17:40:46.591Z,31.70
2019-02-10T17:43:16.522Z,33.70
2019-02-10T17:45:46.355Z,26.15
2019-02-10T17:48:16.291Z,32.73
2019-02-10T17:50:46.146Z,29.02
2019-02-10T17:53:16.046Z,31.17
2019-02-10T17:55:46.919Z,30.97
2019-02-10T17:58:16.623Z,29.48
2019-02-10T18:00:48.721Z,27.95
2019-02-10T18:03:18.680Z,24.37
2019-02-10T18:05:51.721Z,27.07
2019-02-10T18:08:23.081Z,30.82
2019-02-10T18:10:53.050Z,31.33
2019-02-10T18:13:23.202Z,28.15
2019-02-10T18:16:18.562Z,31.65
2019-02-10T18:18:57.954Z,32.33
2019-02-10T18:21:49.463Z,26.10
2019-02-10T18:24:49.422Z,34.75
2019-02-10T18:27:55.979Z,34.53
2019-02-10T18:30:43.161Z,24.90
2019-02-10T18:33:37.788Z,34.63
2019-02-10T18:36:29.244Z,24.85
2019-02-10T18:39:12.248Z,31.93
2019-02-10T18:42:21.043Z,29.02
2019-02-10T18:45:15.641Z,34.08
2019-02-10T18:47:59.227Z,29.12
2019-02-10T18:50:48.051Z,38.55
2019-02-10T18:53:37.068Z,34.15
2019-02-10T18:56:15.119Z,30.27
2019-02-10T18:58:54.484Z,30.95
2019-02-10T19:01:44.062Z,32.00
2019-02-10T19:04:32.353Z,30.88
2019-02-10T19:07:18.602Z,30.72
2019-02-10T19:10:02.250Z,32.73
2019-02-10T19:12:45.324Z,34.15
2019-02-10T19:15:46.615Z,30.45
2019-02-10T19:18:45.790Z,32.03
2019-02-10T19:21:36.375Z,33.05
2019-02-10T19:24:40.451Z,30.57
2019-02-10T19:27:18.020Z,32.83
2019-02-10T19:30:06.880Z,29.75
2019-02-10T19:32:46.982Z,35.65
2019-02-10T19:35:37.796Z,30.17
2019-02-10T19:38:29.086Z,30.85
2019-02-10T19:41:08.727Z,37.10
2019-02-10T19:44:02.570Z,37.50
2019-02-10T19:46:54.175Z,32.33
2019-02-10T19:49:39.891Z,32.60
2019-02-10T19:52:38.465Z,33.35
2019-02-10T19:55:32.899Z,28.40
2019-02-10T19:58:33.629Z,32.95
2019-02-10T20:01:31.472Z,32.90
2019-02-10T20:04:19.035Z,42.40
2019-02-10T20:06:58.953Z,31.95
2019-02-10T20:09:45.415Z,31.20
2019-02-10T20:12:45.376Z,28.25
2019-02-10T20:15:26.592Z,36.63
2019-02-10T20:18:22.990Z,34.48
2019-02-10T20:21:12.907Z,32.60
2019-02-10T20:23:53.845Z,31.10
2019-02-10T20:26:40.152Z,30.10
2019-02-10T20:29:31.931Z,32.35
2019-02-10T20:32:20.813Z,28.55
2019-02-10T20:35:12.425Z,32.17
2019-02-10T20:38:01.148Z,34.73
2019-02-10T20:40:56.336Z,33.70
2019-02-10T20:43:38.435Z,26.00
2019-02-10T20:46:20.286Z,29.57
2019-02-10T20:49:14.052Z,31.52
2019-02-10T20:52:01.670Z,30.52
2019-02-10T20:55:05.587Z,32.60
2019-02-10T20:57:52.904Z,30.15
2019-02-10T21:00:56.469Z,32.10
2019-02-10T21:03:57.253Z,31.50
2019-02-10T21:06:45.929Z,27.35
2019-02-10T21:09:36.879Z,30.88
2019-02-10T21:12:40.640Z,31.20
2019-02-10T21:15:23.357Z,27.77
2019-02-10T21:18:30.667Z,25.68
2019-02-10T21:21:22.433Z,24.82
2019-02-10T21:24:08.234Z,22.17
2019-02-10T21:27:03.083Z,27.65
2019-02-10T21:29:51.371Z,26.62
2019-02-10T21:32:38.741Z,25.02
2019-02-10T21:35:18.216Z,22.87
2019-02-10T21:38:07.120Z,24.00
2019-02-10T21:41:15.281Z,23.65
2019-02-10T21:44:06.955Z,28.45
2019-02-10T21:46:46.240Z,26.87
2019-02-10T21:49:17.727Z,24.63
2019-02-10T21:51:47.454Z,27.10
2019-02-10T21:54:17.262Z,30.30
2019-02-10T21:56:47.074Z,28.30
2019-02-10T21:59:16.789Z,32.38
2019-02-10T22:01:46.672Z,29.30
2019-02-10T22:04:16.422Z,31.42
2019-02-10T22:06:46.215Z,30.90
2019-02-10T22:09:16.019Z,21.02
2019-02-10T22:11:46.066Z,25.10
2019-02-10T22:14:16.052Z,21.27
2019-02-10T22:16:45.912Z,27.87
2019-02-10T22:19:15.724Z,25.05
2019-02-10T22:21:45.506Z,26.15
2019-02-10T22:24:15.323Z,21.02
2019-02-10T22:26:45.220Z,25.77
2019-02-10T22:29:14.979Z,25.02
2019-02-10T22:31:44.743Z,24.10
2019-02-10T22:34:14.463Z,15.25
2019-02-10T22:36:44.403Z,15.98
2019-02-10T22:39:14.331Z,22.60
2019-02-10T22:41:44.140Z,12.13
2019-02-10T22:44:13.978Z,16.45
2019-02-10T22:46:43.927Z,13.75
2019-02-10T22:49:13.856Z,14.47
2019-02-10T22:51:44.753Z,15.20
2019-02-10T22:54:14.546Z,16.07
2019-02-10T22:56:44.345Z,14.50
2019-02-10T22:59:14.460Z,16.80
2019-02-10T23:01:44.170Z,15.35
2019-02-10T23:04:13.971Z,15.10
2019-02-10T23:06:45.059Z,15.90
2019-02-10T23:09:24.809Z,14.85
2019-02-10T23:11:54.511Z,16.05
2019-02-10T23:14:24.194Z,17.00
2019-02-10T23:16:54.088Z,14.70
2019-02-10T23:19:23.902Z,12.20
2019-02-10T23:21:53.688Z,13.45
2019-02-10T23:24:23.395Z,14.65
2019-02-10T23:26:53.423Z,13.20
2019-02-10T23:29:23.276Z,12.37
2019-02-10T23:31:53.062Z,14.75
2019-02-10T23:34:22.896Z,12.70
2019-02-10T23:36:52.666Z,11.60
2019-02-10T23:39:22.403Z,14.70
2019-02-10T23:41:52.135Z,11.12
2019-02-10T23:44:21.897Z,11.10
2019-02-10T23:46:51.636Z,15.53
2019-02-10T23:49:21.450Z,14.13
2019-02-10T23:51:51.165Z,16.23
2019-02-10T23:54:20.866Z,10.50
2019-02-10T23:56:50.599Z,10.95
2019-02-10T23:59:20.291Z,15.25
